Latest Weather Observations for Lord Howe Island Windy Point

IDN60801

Issued at 12:42 pm EDT Monday 26 October 2020 (issued every 10 minutes, with the page automatically refreshed every 10 minutes)

About weather observations | Map of weather stations | Latest weather observations for NSW | Other Formats
Station Details ID: 200715 Name: LORD HOWE ISLAND WINDY POINT Lat: -31.54 Lon: 159.07 Height: 4.0 m
Data from the previous 72 hours. | See also: Recent months at Lord Howe Island Windy Point
Date/Time
EDT
Temp
°C
App
Temp
°C
Dew
Point
°C
Rel
Hum
%
Delta-T
°C
Wind Press
QNH
hPa
Press
MSL
hPa
Rain since
9am
mm
Dir  Spd
km/h
Gust
km/h
Spd
kts
Gust
kts
26/12:30pm - - - - - W 9 15 5 8 - - -
26/12:00pm - - - - - W 13 15 7 8 - - -
26/11:30am - - - - - WSW 11 15 6 8 - - -
26/11:00am - - - - - SW 13 19 7 10 - - -
26/10:30am - - - - - WSW 26 32 14 17 - - -
26/10:00am - - - - - NE 15 30 8 16 - - -
26/09:30am - - - - - ENE 11 20 6 11 - - -
26/09:00am - - - - - ENE 9 19 5 10 - - -
26/08:30am - - - - - NE 13 22 7 12 - - -
26/08:00am - - - - - NE 15 26 8 14 - - -
26/07:30am - - - - - NE 13 22 7 12 - - -
26/07:00am - - - - - NE 9 17 5 9 - - -
26/06:30am - - - - - ENE 11 17 6 9 - - -
26/06:00am - - - - - NNE 13 20 7 11 - - -
26/05:30am - - - - - ENE 11 17 6 9 - - -
26/05:00am - - - - - NNE 9 11 5 6 - - -
26/04:30am - - - - - NNE 9 15 5 8 - - -
26/04:00am - - - - - NNE 7 13 4 7 - - -
26/03:30am - - - - - NNW 11 20 6 11 - - -
26/03:00am - - - - - N 7 11 4 6 - - -
26/02:30am - - - - - NNE 9 19 5 10 - - -
26/02:00am - - - - - NNE 11 17 6 9 - - -
26/01:30am - - - - - NNE 13 20 7 11 - - -
26/01:00am - - - - - NE 11 20 6 11 - - -
26/12:30am - - - - - NNE 11 20 6 11 - - -
26/12:00am - - - - - NNE 11 20 6 11 - - -
 
Date/Time
EDT
Temp
°C
App
Temp
°C
Dew
Point
°C
Rel
Hum
%
Delta-T
°C
Wind Press
QNH
hPa
Press
MSL
hPa
Rain since
9am
mm
Dir  Spd
km/h
Gust
km/h
Spd
kts
Gust
kts
25/11:30pm - - - - - NNE 9 15 5 8 - - -
25/11:00pm - - - - - NNE 9 19 5 10 - - -
25/10:30pm - - - - - ENE 13 24 7 13 - - -
25/10:00pm - - - - - NE 9 19 5 10 - - -
25/09:30pm - - - - - NE 11 19 6 10 - - -
25/09:00pm - - - - - NE 7 13 4 7 - - -
25/08:30pm - - - - - N 7 17 4 9 - - -
25/08:00pm - - - - - NNE 11 17 6 9 - - -
25/07:30pm - - - - - NNE 9 15 5 8 - - -
25/07:00pm - - - - - NNE 7 13 4 7 - - -
25/06:30pm - - - - - NNE 11 19 6 10 - - -
25/06:00pm - - - - - NNE 13 20 7 11 - - -
25/05:30pm - - - - - NNE 11 20 6 11 - - -
25/05:00pm - - - - - NNW 9 20 5 11 - - -
25/04:30pm - - - - - NW 13 19 7 10 - - -
25/04:00pm - - - - - NW 15 26 8 14 - - -
25/03:30pm - - - - - NNW 15 28 8 15 - - -
25/03:00pm - - - - - NNW 11 24 6 13 - - -
25/02:30pm - - - - - NW 15 24 8 13 - - -
25/02:00pm - - - - - NW 17 30 9 16 - - -
25/01:30pm - - - - - NW 17 24 9 13 - - -
25/01:00pm - - - - - NW 19 30 10 16 - - -
25/12:30pm - - - - - NW 17 30 9 16 - - -
25/12:00pm - - - - - NW 15 26 8 14 - - -
25/11:30am - - - - - NW 20 35 11 19 - - -
25/11:00am - - - - - NW 20 33 11 18 - - -
25/10:30am - - - - - NW 20 35 11 19 - - -
25/10:00am - - - - - NW 20 28 11 15 - - -
25/09:30am - - - - - NW 15 22 8 12 - - -
25/09:00am - - - - - NW 13 20 7 11 - - -
25/08:30am - - - - - N 11 22 6 12 - - -
25/08:00am - - - - - NNW 7 15 4 8 - - -
25/07:30am - - - - - NE 13 24 7 13 - - -
25/07:00am - - - - - E 9 22 5 12 - - -
25/06:30am - - - - - NW 11 20 6 11 - - -
25/06:00am - - - - - WNW 9 20 5 11 - - -
25/05:30am - - - - - NNE 7 15 4 8 - - -
25/05:00am - - - - - NNE 11 20 6 11 - - -
25/04:30am - - - - - NE 9 17 5 9 - - -
25/04:00am - - - - - NNE 13 22 7 12 - - -
25/03:30am - - - - - NNE 15 28 8 15 - - -
25/03:00am - - - - - NNE 17 33 9 18 - - -
25/02:30am - - - - - NNE 13 22 7 12 - - -
25/02:00am - - - - - NNE 13 26 7 14 - - -
25/01:30am - - - - - NNE 13 26 7 14 - - -
25/01:00am - - - - - NNE 11 20 6 11 - - -
25/12:30am - - - - - NNE 13 22 7 12 - - -
25/12:00am - - - - - NNE 13 20 7 11 - - -
 
Date/Time
EDT
Temp
°C
App
Temp
°C
Dew
Point
°C
Rel
Hum
%
Delta-T
°C
Wind Press
QNH
hPa
Press
MSL
hPa
Rain since
9am
mm
Dir  Spd
km/h
Gust
km/h
Spd
kts
Gust
kts
24/11:30pm - - - - - NNE 13 24 7 13 - - -
24/11:00pm - - - - - NE 9 20 5 11 - - -
24/10:30pm - - - - - NE 9 20 5 11 - - -
24/10:00pm - - - - - NNE 15 24 8 13 - - -
24/09:30pm - - - - - NNE 13 20 7 11 - - -
24/09:00pm - - - - - NNE 17 32 9 17 - - -
24/08:30pm - - - - - NNE 13 22 7 12 - - -
24/08:00pm - - - - - NNE 9 15 5 8 - - -
24/07:30pm - - - - - NNE 9 13 5 7 - - -
24/07:00pm - - - - - NNE 9 20 5 11 - - -
24/06:30pm - - - - - NNE 9 13 5 7 - - -
24/06:00pm - - - - - NNE 9 17 5 9 - - -
24/05:30pm - - - - - NNE 9 17 5 9 - - -
24/05:00pm - - - - - NNE 11 17 6 9 - - -
24/04:30pm - - - - - NNE 11 20 6 11 - - -
24/04:00pm - - - - - NNE 15 22 8 12 - - -
24/03:30pm - - - - - N 13 26 7 14 - - -
24/03:00pm - - - - - NNE 19 28 10 15 - - -
24/02:30pm - - - - - ENE 17 30 9 16 - - -
24/02:00pm - - - - - E 26 41 14 22 - - -
24/01:30pm - - - - - E 20 30 11 16 - - -
24/01:00pm - - - - - ENE 19 32 10 17 - - -
24/12:30pm - - - - - NNE 19 28 10 15 - - -
24/12:00pm - - - - - NNE 17 26 9 14 - - -
24/11:30am - - - - - N 15 24 8 13 - - -
24/11:00am - - - - - N 13 22 7 12 - - -
24/10:30am - - - - - N 15 24 8 13 - - -
24/10:00am - - - - - NNW 9 15 5 8 - - -
24/09:30am - - - - - NW 9 13 5 7 - - -
24/09:00am - - - - - WNW 7 17 4 9 - - -
24/08:30am - - - - - NNE 11 26 6 14 - - -
24/08:00am - - - - - NNE 13 19 7 10 - - -
24/07:30am - - - - - NNE 13 26 7 14 - - -
24/07:00am - - - - - NNE 13 20 7 11 - - -
24/06:30am - - - - - NNE 15 24 8 13 - - -
24/06:00am - - - - - NNE 15 26 8 14 - - -
24/05:30am - - - - - NNE 20 41 11 22 - - -
24/05:00am - - - - - NE 17 28 9 15 - - -
24/04:30am - - - - - E 20 35 11 19 - - -
24/04:00am - - - - - E 22 39 12 21 - - -
24/03:30am - - - - - E 15 30 8 16 - - -
24/03:00am - - - - - E 15 32 8 17 - - -
24/02:30am - - - - - ENE 13 33 7 18 - - -
24/02:00am - - - - - NE 9 22 5 12 - - -
24/01:30am - - - - - NNE 9 19 5 10 - - -
24/01:00am - - - - - NNE 11 20 6 11 - - -
24/12:30am - - - - - NNE 13 19 7 10 - - -
24/12:00am - - - - - ENE 13 20 7 11 - - -
 
Date/Time
EDT
Temp
°C
App
Temp
°C
Dew
Point
°C
Rel
Hum
%
Delta-T
°C
Wind Press
QNH
hPa
Press
MSL
hPa
Rain since
9am
mm
Dir  Spd
km/h
Gust
km/h
Spd
kts
Gust
kts
23/11:30pm - - - - - ENE 13 20 7 11 - - -
23/11:00pm - - - - - NE 9 15 5 8 - - -
23/10:30pm - - - - - NNE 9 11 5 6 - - -
23/10:00pm - - - - - NNE 7 13 4 7 - - -
23/09:30pm - - - - - NNE 7 11 4 6 - - -
23/09:00pm - - - - - NNE 9 13 5 7 - - -
23/08:30pm - - - - - NNE 9 13 5 7 - - -
23/08:00pm - - - - - NNE 9 11 5 6 - - -
23/07:30pm - - - - - NE 7 9 4 5 - - -
23/07:00pm - - - - - NE 9 11 5 6 - - -
23/06:30pm - - - - - NE 7 9 4 5 - - -
23/06:00pm - - - - - ENE 9 13 5 7 - - -
23/05:30pm - - - - - ENE 13 17 7 9 - - -
23/05:00pm - - - - - ENE 17 20 9 11 - - -
23/04:30pm - - - - - ENE 19 22 10 12 - - -
23/04:00pm - - - - - ENE 19 22 10 12 - - -
23/03:30pm - - - - - ENE 19 22 10 12 - - -
23/03:00pm - - - - - ENE 17 20 9 11 - - -
23/02:30pm - - - - - E 17 20 9 11 - - -
23/02:00pm - - - - - ENE 15 20 8 11 - - -
23/01:30pm - - - - - E 17 24 9 13 - - -
23/01:00pm - - - - - ENE 20 28 11 15 - - -

Other formats

Comma delimited format used in spreadsheet applications
http://www.bom.gov.au/fwo/IDN60801/IDN60801.95995.axf

JavaScript Object Notation format (JSON) in row-major order
http://www.bom.gov.au/fwo/IDN60801/IDN60801.95995.json

Data quality

Most of these data are generated automatically and are frequently updated. Quality checks on data are not normally performed. It is possible for incorrect values to appear. Refer to information at About Latest Weather Observations and please check the disclaimer before using these data.